createdAt,value
2023-03-29T00:00:14.503Z,67.70
2023-03-29T00:02:43.751Z,67.58
2023-03-29T00:05:12.353Z,67.66
2023-03-29T00:07:39.920Z,67.53
2023-03-29T00:10:10.045Z,67.44
2023-03-29T00:12:40.167Z,67.56
2023-03-29T00:15:08.870Z,67.34
2023-03-29T00:17:36.428Z,67.30
2023-03-29T00:20:06.919Z,67.06
2023-03-29T00:22:34.653Z,67.44
2023-03-29T00:25:02.113Z,67.53
2023-03-29T00:27:29.629Z,67.82
2023-03-29T00:29:57.927Z,67.64
2023-03-29T00:34:54.684Z,67.93
2023-03-29T00:37:26.981Z,68.19
2023-03-29T00:39:54.537Z,68.38
2023-03-29T00:42:23.297Z,68.72
2023-03-29T00:44:59.270Z,68.96
2023-03-29T00:47:42.338Z,69.42
2023-03-29T00:50:33.267Z,69.22
2023-03-29T00:53:12.491Z,68.97
2023-03-29T00:56:02.746Z,69.17
2023-03-29T00:58:51.964Z,68.96
2023-03-29T01:01:28.169Z,68.23
2023-03-29T01:04:04.755Z,68.26
2023-03-29T01:06:37.123Z,67.82
2023-03-29T01:09:10.368Z,68.85
2023-03-29T01:11:42.415Z,68.98
2023-03-29T01:14:39.384Z,69.84
2023-03-29T01:17:07.799Z,69.75
2023-03-29T01:19:42.357Z,69.85
2023-03-29T01:22:28.357Z,70.75
2023-03-29T01:25:07.540Z,71.08
2023-03-29T01:27:37.873Z,71.46
2023-03-29T01:30:12.056Z,71.60
2023-03-29T01:32:45.998Z,72.06
2023-03-29T01:35:23.530Z,71.85
2023-03-29T01:38:07.404Z,72.16
2023-03-29T01:40:35.843Z,72.07
2023-03-29T01:43:12.061Z,71.34
2023-03-29T01:45:51.727Z,71.14
2023-03-29T01:48:31.591Z,71.36
2023-03-29T01:51:09.791Z,71.17
2023-03-29T01:53:50.882Z,71.15
2023-03-29T01:56:23.047Z,71.15
2023-03-29T01:58:55.997Z,71.51
2023-03-29T02:01:28.313Z,71.69
2023-03-29T02:04:02.966Z,71.42
2023-03-29T02:06:34.194Z,71.70
2023-03-29T02:09:03.772Z,71.63
2023-03-29T02:11:31.349Z,71.53
2023-03-29T02:13:59.381Z,71.66
2023-03-29T02:16:27.121Z,71.71
2023-03-29T02:18:57.736Z,71.62
2023-03-29T02:21:37.422Z,71.74
2023-03-29T02:24:09.214Z,71.80
2023-03-29T02:26:39.365Z,71.93
2023-03-29T02:29:07.354Z,71.81
2023-03-29T02:31:55.766Z,72.07
2023-03-29T02:34:33.251Z,72.38
2023-03-29T02:37:06.894Z,72.54
2023-03-29T02:39:36.018Z,72.10
2023-03-29T02:42:05.400Z,72.09
2023-03-29T02:44:37.498Z,71.84
2023-03-29T02:47:16.142Z,71.90
2023-03-29T02:49:44.394Z,71.87
2023-03-29T02:52:17.417Z,71.86
2023-03-29T02:54:48.561Z,72.05
2023-03-29T02:57:16.481Z,72.38
2023-03-29T02:59:45.013Z,72.63
2023-03-29T03:02:13.803Z,72.94
2023-03-29T03:04:43.338Z,72.79
2023-03-29T03:07:10.763Z,72.79
2023-03-29T03:09:38.300Z,72.17
2023-03-29T03:12:06.324Z,71.94
2023-03-29T03:14:34.453Z,70.92
2023-03-29T03:17:04.413Z,70.29
2023-03-29T03:19:32.823Z,69.68
2023-03-29T03:22:00.428Z,69.65
2023-03-29T03:24:32.735Z,69.83
2023-03-29T03:27:00.830Z,69.56
2023-03-29T03:29:28.466Z,69.31
2023-03-29T03:31:58.590Z,69.11
2023-03-29T03:34:28.545Z,69.00
2023-03-29T03:36:56.137Z,68.72
2023-03-29T03:39:23.673Z,68.43
2023-03-29T03:41:51.677Z,68.86
2023-03-29T03:44:19.546Z,69.88
2023-03-29T03:46:47.824Z,70.41
2023-03-29T03:49:16.597Z,70.59
2023-03-29T03:51:45.589Z,71.73
2023-03-29T03:54:14.193Z,72.01
2023-03-29T03:56:43.665Z,72.19
2023-03-29T03:59:11.836Z,71.56
2023-03-29T04:01:43.501Z,72.08
2023-03-29T04:04:12.679Z,72.32
2023-03-29T04:06:43.757Z,72.56
2023-03-29T04:09:14.913Z,73.33
2023-03-29T04:11:42.641Z,73.74
2023-03-29T04:14:11.292Z,74.50
2023-03-29T04:16:39.669Z,74.64
2023-03-29T04:19:08.399Z,74.58
2023-03-29T04:21:36.002Z,74.37
2023-03-29T04:24:03.971Z,74.75
2023-03-29T04:26:31.995Z,74.51
2023-03-29T04:29:01.433Z,74.63
2023-03-29T04:31:31.831Z,74.38
2023-03-29T04:34:00.540Z,74.18
2023-03-29T04:36:29.514Z,74.03
2023-03-29T04:38:58.637Z,74.27
2023-03-29T04:41:27.497Z,74.52
2023-03-29T04:43:56.245Z,73.69
2023-03-29T04:46:27.144Z,73.97
2023-03-29T04:48:56.637Z,73.19
2023-03-29T04:51:25.396Z,72.52
2023-03-29T04:53:53.938Z,72.33
2023-03-29T04:56:23.253Z,72.21
2023-03-29T04:58:53.449Z,72.62
2023-03-29T05:01:22.130Z,72.44
2023-03-29T05:03:50.568Z,72.76
2023-03-29T05:06:18.812Z,73.07
2023-03-29T05:08:47.051Z,72.53
2023-03-29T05:11:17.613Z,72.83
2023-03-29T05:13:45.565Z,71.90
2023-03-29T05:16:13.240Z,71.35
2023-03-29T05:18:41.092Z,72.33
2023-03-29T05:21:10.232Z,72.38
2023-03-29T05:23:38.342Z,73.04
2023-03-29T05:26:09.902Z,73.27
2023-03-29T05:28:38.035Z,73.14
2023-03-29T05:31:06.371Z,73.07
2023-03-29T05:33:35.535Z,72.23
2023-03-29T05:36:05.605Z,72.40
2023-03-29T05:38:34.944Z,71.38
2023-03-29T05:41:03.370Z,71.87
2023-03-29T05:43:33.601Z,70.30
2023-03-29T05:46:01.939Z,70.70
2023-03-29T05:48:30.227Z,72.19
2023-03-29T05:50:57.926Z,72.92
2023-03-29T05:53:29.696Z,72.96
2023-03-29T05:55:58.064Z,73.21
2023-03-29T05:58:26.707Z,73.49
2023-03-29T06:00:54.988Z,72.33
2023-03-29T06:03:27.802Z,72.84
2023-03-29T06:05:59.316Z,70.85
2023-03-29T06:08:28.069Z,70.73
2023-03-29T06:11:05.794Z,70.79
2023-03-29T06:13:38.874Z,70.75
2023-03-29T06:16:07.290Z,71.03
2023-03-29T06:18:36.223Z,71.50
2023-03-29T06:21:04.420Z,71.70
2023-03-29T06:23:32.533Z,71.82
2023-03-29T06:26:00.629Z,71.56
2023-03-29T06:28:28.244Z,71.18
2023-03-29T06:30:56.626Z,71.00
2023-03-29T06:33:25.458Z,71.24
2023-03-29T06:35:53.814Z,71.44
2023-03-29T06:38:21.981Z,71.55
2023-03-29T06:40:52.752Z,71.47
2023-03-29T06:43:20.966Z,70.67
2023-03-29T06:45:54.292Z,70.10
2023-03-29T06:48:23.162Z,67.83
2023-03-29T06:50:51.160Z,68.35
2023-03-29T06:53:19.070Z,68.20
2023-03-29T06:55:47.711Z,68.24
2023-03-29T06:58:16.615Z,67.81
2023-03-29T07:00:44.397Z,66.98
2023-03-29T07:03:20.164Z,65.47
2023-03-29T07:05:51.926Z,64.27
2023-03-29T07:08:22.589Z,63.29
2023-03-29T07:10:53.387Z,62.54
2023-03-29T07:13:23.635Z,61.40
2023-03-29T07:15:52.472Z,58.51
2023-03-29T07:18:20.418Z,57.91
2023-03-29T07:20:48.533Z,56.61
2023-03-29T07:23:17.509Z,55.40
2023-03-29T07:25:45.306Z,54.45
2023-03-29T07:28:13.307Z,53.22
2023-03-29T07:30:40.952Z,51.55
2023-03-29T07:33:09.568Z,51.97
2023-03-29T07:35:38.518Z,52.06
2023-03-29T07:38:08.303Z,52.57
2023-03-29T07:40:36.576Z,52.02
2023-03-29T07:43:10.975Z,51.73
2023-03-29T07:45:40.742Z,51.75
2023-03-29T07:48:09.006Z,51.23
2023-03-29T07:50:38.932Z,50.82
2023-03-29T07:53:07.376Z,50.00
2023-03-29T07:55:35.640Z,49.74
2023-03-29T07:58:04.400Z,49.62
2023-03-29T08:00:34.234Z,48.88
2023-03-29T08:03:04.303Z,49.24
2023-03-29T08:05:40.586Z,48.31
2023-03-29T08:08:09.962Z,46.45
2023-03-29T08:10:39.480Z,45.21
2023-03-29T08:13:09.657Z,46.10
2023-03-29T08:15:40.011Z,47.33
2023-03-29T08:18:09.655Z,46.71
2023-03-29T08:20:37.341Z,44.69
2023-03-29T08:23:05.300Z,43.87
2023-03-29T08:25:35.208Z,43.31
2023-03-29T08:28:03.565Z,43.13
2023-03-29T08:30:33.231Z,42.50
2023-03-29T08:33:01.683Z,41.07
2023-03-29T08:35:29.375Z,41.47
2023-03-29T08:37:58.494Z,40.85
2023-03-29T08:40:30.330Z,40.35
2023-03-29T08:43:26.127Z,39.61
2023-03-29T08:46:19.360Z,39.07
2023-03-29T08:49:09.280Z,38.74
2023-03-29T08:51:42.641Z,39.57
2023-03-29T08:54:28.205Z,40.39
2023-03-29T08:57:07.598Z,40.12
2023-03-29T08:59:35.975Z,40.95
2023-03-29T09:02:10.659Z,40.85
2023-03-29T09:04:42.733Z,41.51
2023-03-29T09:07:11.578Z,40.89
2023-03-29T09:09:42.302Z,40.52
2023-03-29T09:12:26.440Z,40.51
2023-03-29T09:15:19.780Z,41.52
2023-03-29T09:18:13.858Z,41.46
2023-03-29T09:20:54.446Z,39.51
2023-03-29T09:23:49.306Z,39.53
2023-03-29T09:26:24.662Z,39.25
2023-03-29T09:29:04.653Z,39.01
2023-03-29T09:31:43.523Z,37.82
2023-03-29T09:35:00.978Z,37.68
2023-03-29T09:37:33.454Z,37.76
2023-03-29T09:40:05.367Z,36.12
2023-03-29T09:42:38.042Z,35.93
2023-03-29T09:45:09.350Z,36.71
2023-03-29T09:47:47.871Z,35.75
2023-03-29T09:50:30.983Z,35.92
2023-03-29T09:53:00.214Z,35.80
2023-03-29T09:55:31.406Z,35.02
2023-03-29T09:58:02.166Z,34.09
2023-03-29T10:00:31.051Z,33.66
2023-03-29T10:03:00.351Z,33.92
2023-03-29T10:05:32.640Z,34.77
2023-03-29T10:08:01.791Z,34.17
2023-03-29T10:10:33.493Z,34.16
2023-03-29T10:13:05.673Z,32.82
2023-03-29T10:15:33.548Z,32.96
2023-03-29T10:18:06.862Z,33.25
2023-03-29T10:20:39.889Z,33.72
2023-03-29T10:23:17.400Z,33.07
2023-03-29T10:25:45.568Z,32.27
2023-03-29T10:28:18.816Z,44.72
2023-03-29T10:30:54.288Z,32.72
2023-03-29T10:33:25.081Z,33.23
2023-03-29T10:35:52.663Z,33.10
2023-03-29T10:38:23.766Z,31.99
2023-03-29T10:40:53.788Z,33.18
2023-03-29T10:43:26.228Z,31.95
2023-03-29T10:45:56.915Z,32.09
2023-03-29T10:48:29.003Z,33.39
2023-03-29T10:51:01.976Z,32.67
2023-03-29T10:53:34.263Z,33.05
2023-03-29T10:56:52.348Z,32.85
2023-03-29T10:59:37.630Z,33.39
2023-03-29T11:02:05.412Z,32.72
2023-03-29T11:05:03.597Z,34.37
2023-03-29T11:07:56.330Z,34.39
2023-03-29T11:10:30.796Z,35.16
2023-03-29T11:13:01.492Z,34.21
2023-03-29T11:16:02.857Z,34.16
2023-03-29T11:19:03.217Z,34.08
2023-03-29T11:21:50.058Z,34.18
2023-03-29T11:24:44.142Z,34.88
2023-03-29T11:27:34.461Z,34.56
2023-03-29T11:30:26.898Z,34.98
2023-03-29T11:33:23.184Z,35.63
2023-03-29T11:36:14.630Z,34.99
2023-03-29T11:38:54.660Z,35.32
2023-03-29T11:41:27.739Z,36.78
2023-03-29T11:44:17.791Z,34.29
2023-03-29T11:47:07.302Z,34.44
2023-03-29T11:49:45.534Z,34.22
2023-03-29T11:52:20.229Z,34.48
2023-03-29T11:55:03.641Z,34.90
2023-03-29T11:57:38.788Z,34.39
2023-03-29T12:00:19.734Z,35.32
2023-03-29T12:02:55.823Z,33.26
2023-03-29T12:05:30.590Z,33.93
2023-03-29T12:08:09.708Z,34.19
2023-03-29T12:11:03.876Z,35.13
2023-03-29T12:13:37.973Z,35.66
2023-03-29T12:16:23.912Z,36.00
2023-03-29T12:18:56.406Z,34.87
2023-03-29T12:21:29.043Z,34.43
2023-03-29T12:23:58.266Z,35.89
2023-03-29T12:26:57.830Z,34.66
2023-03-29T12:29:50.666Z,35.30
2023-03-29T12:32:39.929Z,34.57
2023-03-29T12:35:27.893Z,34.71
2023-03-29T12:38:18.134Z,35.47
2023-03-29T12:41:00.789Z,34.97
2023-03-29T12:43:33.225Z,35.66
2023-03-29T12:46:17.438Z,35.51
2023-03-29T12:48:49.319Z,34.66
2023-03-29T12:51:21.150Z,35.09
2023-03-29T12:54:01.479Z,36.32
2023-03-29T12:56:40.664Z,35.13
2023-03-29T12:59:11.659Z,36.99
2023-03-29T13:01:43.248Z,36.71
2023-03-29T13:04:20.700Z,35.83
2023-03-29T13:06:48.477Z,36.01
2023-03-29T13:09:46.575Z,36.96
2023-03-29T13:12:32.184Z,36.76
2023-03-29T13:15:25.257Z,36.07
2023-03-29T13:18:16.273Z,36.33
2023-03-29T13:21:09.852Z,36.26
2023-03-29T13:23:52.763Z,35.35
2023-03-29T13:26:28.992Z,35.64
2023-03-29T13:29:18.798Z,34.97
2023-03-29T13:32:22.410Z,34.43
2023-03-29T13:35:06.351Z,33.51
2023-03-29T13:38:08.132Z,34.28
2023-03-29T13:40:42.961Z,33.21
2023-03-29T13:43:24.558Z,31.68
2023-03-29T13:45:58.226Z,31.08
2023-03-29T13:48:33.579Z,30.64
2023-03-29T13:51:18.473Z,30.92
2023-03-29T13:53:50.166Z,31.82
2023-03-29T13:56:27.154Z,32.06
2023-03-29T13:59:03.707Z,32.70
2023-03-29T14:01:43.337Z,32.61
2023-03-29T14:04:17.087Z,32.92
2023-03-29T14:06:51.763Z,33.12
2023-03-29T14:09:30.099Z,32.88
2023-03-29T14:12:01.202Z,32.86
2023-03-29T14:14:32.786Z,32.90
2023-03-29T14:17:01.393Z,33.18
2023-03-29T14:19:36.612Z,33.58
2023-03-29T14:22:10.847Z,34.49
2023-03-29T14:24:41.041Z,34.54
2023-03-29T14:27:12.094Z,34.16
2023-03-29T14:29:39.949Z,34.23
2023-03-29T14:32:12.666Z,34.41
2023-03-29T14:34:40.768Z,34.44
2023-03-29T14:37:13.338Z,34.94
2023-03-29T14:39:41.753Z,35.66
2023-03-29T14:42:15.898Z,35.14
2023-03-29T14:44:44.919Z,34.88
2023-03-29T14:47:29.519Z,35.07
2023-03-29T14:50:00.974Z,35.17
2023-03-29T14:52:30.576Z,34.69
2023-03-29T14:55:02.021Z,34.75
2023-03-29T14:57:35.524Z,34.97
2023-03-29T15:00:35.018Z,35.43
2023-03-29T15:03:03.086Z,35.15
2023-03-29T15:05:33.666Z,35.28
2023-03-29T15:08:03.190Z,35.76
2023-03-29T15:10:36.883Z,35.86
2023-03-29T15:13:06.825Z,36.27
2023-03-29T15:15:38.480Z,36.66
2023-03-29T15:18:08.515Z,36.72
2023-03-29T15:20:41.585Z,36.34
2023-03-29T15:23:21.645Z,36.40
2023-03-29T15:25:58.450Z,36.59
2023-03-29T15:28:32.680Z,36.67
2023-03-29T15:33:37.161Z,37.07
2023-03-29T15:36:07.164Z,37.29
2023-03-29T15:38:43.853Z,37.24
2023-03-29T15:41:14.369Z,37.23
2023-03-29T15:43:43.125Z,37.79
2023-03-29T15:46:12.875Z,37.88
2023-03-29T15:48:40.864Z,38.47
2023-03-29T15:51:10.849Z,38.57
2023-03-29T15:53:39.122Z,39.37
2023-03-29T15:56:10.190Z,39.43
2023-03-29T15:58:38.210Z,40.06
2023-03-29T16:01:39.037Z,40.18
2023-03-29T16:04:11.246Z,40.09
2023-03-29T16:06:39.183Z,39.91
2023-03-29T16:09:08.762Z,40.27
2023-03-29T16:11:36.398Z,40.69
2023-03-29T16:14:27.711Z,41.74
2023-03-29T16:16:59.346Z,43.59
2023-03-29T16:19:28.069Z,44.45
2023-03-29T16:21:56.806Z,45.41
2023-03-29T16:24:31.176Z,42.93
2023-03-29T16:27:00.052Z,42.38
2023-03-29T16:29:27.782Z,43.06
2023-03-29T16:31:55.461Z,43.24
2023-03-29T16:34:23.785Z,45.19
2023-03-29T16:36:52.978Z,43.93
2023-03-29T16:39:20.840Z,44.34
2023-03-29T16:41:50.241Z,45.10
2023-03-29T16:44:22.988Z,44.06
2023-03-29T16:46:54.252Z,43.33
2023-03-29T16:49:22.528Z,44.11
2023-03-29T16:51:50.079Z,44.68
2023-03-29T16:54:18.956Z,44.53
2023-03-29T16:56:46.988Z,44.94
2023-03-29T16:59:15.395Z,45.65
2023-03-29T17:01:43.300Z,46.18
2023-03-29T17:04:11.620Z,45.83
2023-03-29T17:06:39.138Z,45.49
2023-03-29T17:09:07.415Z,48.03
2023-03-29T17:11:36.056Z,45.66
2023-03-29T17:14:03.622Z,45.64
2023-03-29T17:16:31.536Z,46.33
2023-03-29T17:19:02.517Z,47.09
2023-03-29T17:21:30.037Z,48.45
2023-03-29T17:23:57.911Z,48.71
2023-03-29T17:26:26.074Z,47.13
2023-03-29T17:28:53.573Z,47.36
2023-03-29T17:31:21.545Z,47.85
2023-03-29T17:33:51.992Z,47.06
2023-03-29T17:36:24.149Z,45.56
2023-03-29T17:38:52.134Z,46.38
2023-03-29T17:41:19.607Z,47.41
2023-03-29T17:43:47.919Z,45.08
2023-03-29T17:46:16.973Z,44.67
2023-03-29T17:48:46.451Z,44.60
2023-03-29T17:51:13.945Z,44.50
2023-03-29T17:53:41.755Z,45.38
2023-03-29T17:56:09.245Z,44.75
2023-03-29T17:58:36.698Z,44.70
2023-03-29T18:01:09.219Z,48.04
2023-03-29T18:03:37.441Z,46.54
2023-03-29T18:06:06.344Z,45.80
2023-03-29T18:08:34.135Z,46.04
2023-03-29T18:11:11.552Z,47.67
2023-03-29T18:13:40.026Z,49.21
2023-03-29T18:16:09.071Z,50.19
2023-03-29T18:18:37.401Z,50.25
2023-03-29T18:21:06.964Z,50.75
2023-03-29T18:23:34.819Z,51.36
2023-03-29T18:26:04.637Z,51.69
2023-03-29T18:28:32.650Z,51.55
2023-03-29T18:31:01.317Z,50.78
2023-03-29T18:33:30.329Z,50.81
2023-03-29T18:35:57.948Z,50.58
2023-03-29T18:38:25.821Z,49.69
2023-03-29T18:40:53.346Z,50.04
2023-03-29T18:43:20.880Z,50.06
2023-03-29T18:45:48.891Z,49.78
2023-03-29T18:48:16.477Z,51.48
2023-03-29T18:50:47.298Z,49.73
2023-03-29T18:53:16.701Z,49.68
2023-03-29T18:55:44.457Z,49.59
2023-03-29T18:58:13.747Z,49.60
2023-03-29T19:00:42.537Z,50.29
2023-03-29T19:03:10.448Z,49.61
2023-03-29T19:05:39.216Z,49.80
2023-03-29T19:08:08.570Z,50.66
2023-03-29T19:10:37.618Z,51.54
2023-03-29T19:13:05.596Z,52.99
2023-03-29T19:15:34.758Z,52.33
2023-03-29T19:18:02.662Z,51.52
2023-03-29T19:20:30.207Z,52.84
2023-03-29T19:22:58.022Z,50.39
2023-03-29T19:25:25.691Z,50.23
2023-03-29T19:27:53.322Z,50.70
2023-03-29T19:30:23.381Z,51.16
2023-03-29T19:32:51.578Z,54.20
2023-03-29T19:35:19.236Z,54.64
2023-03-29T19:37:47.087Z,56.44
2023-03-29T19:40:15.350Z,56.97
2023-03-29T19:42:42.930Z,56.27
2023-03-29T19:45:11.287Z,57.74
2023-03-29T19:47:38.912Z,58.63
2023-03-29T19:50:07.067Z,58.98
2023-03-29T19:52:35.269Z,59.93
2023-03-29T19:55:02.871Z,59.51
2023-03-29T19:57:30.888Z,57.48
2023-03-29T19:59:58.767Z,58.19
2023-03-29T20:02:26.310Z,58.84
2023-03-29T20:04:55.135Z,58.96
2023-03-29T20:07:22.791Z,58.38
2023-03-29T20:09:50.444Z,60.23
2023-03-29T20:12:18.239Z,59.49
2023-03-29T20:14:45.950Z,60.27
2023-03-29T20:17:13.509Z,59.42
2023-03-29T20:19:44.163Z,59.42
2023-03-29T20:22:12.133Z,59.72
2023-03-29T20:24:39.633Z,60.07
2023-03-29T20:27:07.474Z,60.28
2023-03-29T20:29:35.473Z,61.11
2023-03-29T20:32:03.452Z,58.67
2023-03-29T20:34:31.313Z,60.12
2023-03-29T20:37:00.912Z,58.23
2023-03-29T20:39:29.658Z,58.37
2023-03-29T20:41:58.128Z,58.09
2023-03-29T20:44:28.425Z,56.07
2023-03-29T20:47:08.427Z,59.45
2023-03-29T20:49:37.231Z,58.81
2023-03-29T20:52:15.559Z,56.73
2023-03-29T20:54:44.904Z,56.37
2023-03-29T20:57:18.026Z,58.46
2023-03-29T20:59:49.298Z,57.30
2023-03-29T21:02:21.179Z,57.06
2023-03-29T21:04:51.906Z,57.85
2023-03-29T21:07:20.354Z,58.41
2023-03-29T21:09:49.956Z,58.88
2023-03-29T21:12:17.843Z,59.04
2023-03-29T21:14:47.464Z,59.59
2023-03-29T21:17:15.375Z,59.92
2023-03-29T21:19:43.212Z,59.12
2023-03-29T21:22:13.785Z,59.00
2023-03-29T21:24:41.397Z,60.24
2023-03-29T21:27:09.281Z,61.37
2023-03-29T21:29:36.760Z,62.61
2023-03-29T21:32:04.657Z,62.18
2023-03-29T21:34:32.572Z,62.05
2023-03-29T21:37:00.281Z,62.12
2023-03-29T21:39:28.344Z,61.48
2023-03-29T21:41:56.261Z,59.80
2023-03-29T21:44:23.769Z,60.19
2023-03-29T21:46:51.346Z,59.81
2023-03-29T21:49:19.385Z,62.06
2023-03-29T21:51:46.885Z,62.04
2023-03-29T21:54:14.418Z,61.09
2023-03-29T21:56:42.480Z,60.35
2023-03-29T21:59:09.991Z,59.81
2023-03-29T22:01:37.629Z,58.80
2023-03-29T22:04:05.432Z,58.89
2023-03-29T23:23:51.484Z,62.54
2023-03-29T23:26:19.474Z,63.44
2023-03-29T23:28:47.014Z,64.25
2023-03-29T23:31:18.462Z,64.90
2023-03-29T23:33:46.392Z,65.46
2023-03-29T23:36:16.628Z,64.01
2023-03-29T23:38:46.178Z,62.36
2023-03-29T23:41:14.540Z,59.77
2023-03-29T23:43:44.362Z,58.44
2023-03-29T23:46:17.236Z,58.00
2023-03-29T23:48:50.189Z,58.32
2023-03-29T23:51:22.882Z,58.42
2023-03-29T23:53:51.275Z,58.45
2023-03-29T23:56:18.964Z,58.00
2023-03-29T23:58:46.882Z,61.18
